sensor_id;sensor_type;location;lat;lon;timestamp;temperature;humidity
16305;DHT22;8261;47.678;-122.174;2023-07-20T00:02:12;33.70;93.20
16305;DHT22;8261;47.678;-122.174;2023-07-20T00:04:43;33.70;93.00
16305;DHT22;8261;47.678;-122.174;2023-07-20T00:07:14;33.70;93.10
16305;DHT22;8261;47.678;-122.174;2023-07-20T00:09:45;33.60;93.10
16305;DHT22;8261;47.678;-122.174;2023-07-20T00:12:18;33.70;93.00
16305;DHT22;8261;47.678;-122.174;2023-07-20T00:14:49;33.40;92.00
16305;DHT22;8261;47.678;-122.174;2023-07-20T00:17:23;33.40;93.20
16305;DHT22;8261;47.678;-122.174;2023-07-20T00:19:53;33.50;92.40
16305;DHT22;8261;47.678;-122.174;2023-07-20T00:22:25;33.50;90.60
16305;DHT22;8261;47.678;-122.174;2023-07-20T00:24:56;33.50;91.40
16305;DHT22;8261;47.678;-122.174;2023-07-20T00:27:29;33.60;90.60
16305;DHT22;8261;47.678;-122.174;2023-07-20T00:30:00;33.70;90.10
16305;DHT22;8261;47.678;-122.174;2023-07-20T00:32:31;33.50;90.30
16305;DHT22;8261;47.678;-122.174;2023-07-20T00:35:02;33.50;90.40
16305;DHT22;8261;47.678;-122.174;2023-07-20T00:37:32;33.50;90.00
16305;DHT22;8261;47.678;-122.174;2023-07-20T00:40:04;33.40;89.70
16305;DHT22;8261;47.678;-122.174;2023-07-20T00:42:37;33.30;86.80
16305;DHT22;8261;47.678;-122.174;2023-07-20T00:45:09;33.10;86.90
16305;DHT22;8261;47.678;-122.174;2023-07-20T00:47:41;33.00;87.50
16305;DHT22;8261;47.678;-122.174;2023-07-20T00:50:12;33.00;90.00
16305;DHT22;8261;47.678;-122.174;2023-07-20T00:52:44;33.00;90.00
16305;DHT22;8261;47.678;-122.174;2023-07-20T00:55:15;33.10;90.20
16305;DHT22;8261;47.678;-122.174;2023-07-20T00:57:47;33.10;87.40
16305;DHT22;8261;47.678;-122.174;2023-07-20T01:00:18;33.00;87.30
16305;DHT22;8261;47.678;-122.174;2023-07-20T01:02:49;33.20;87.60
16305;DHT22;8261;47.678;-122.174;2023-07-20T01:05:20;33.50;85.70
16305;DHT22;8261;47.678;-122.174;2023-07-20T01:07:55;34.00;86.90
16305;DHT22;8261;47.678;-122.174;2023-07-20T01:10:33;34.40;83.50
16305;DHT22;8261;47.678;-122.174;2023-07-20T01:13:10;34.80;83.80
16305;DHT22;8261;47.678;-122.174;2023-07-20T01:15:42;34.70;82.40
16305;DHT22;8261;47.678;-122.174;2023-07-20T01:18:19;34.80;82.60
16305;DHT22;8261;47.678;-122.174;2023-07-20T01:20:50;34.80;83.20
16305;DHT22;8261;47.678;-122.174;2023-07-20T01:27:10;34.70;81.30
16305;DHT22;8261;47.678;-122.174;2023-07-20T01:30:00;34.60;82.40
16305;DHT22;8261;47.678;-122.174;2023-07-20T01:32:37;34.50;79.80
16305;DHT22;8261;47.678;-122.174;2023-07-20T01:35:13;34.60;78.00
16305;DHT22;8261;47.678;-122.174;2023-07-20T01:37:46;34.90;79.00
16305;DHT22;8261;47.678;-122.174;2023-07-20T01:40:19;34.80;78.70
16305;DHT22;8261;47.678;-122.174;2023-07-20T01:42:52;35.10;79.70
16305;DHT22;8261;47.678;-122.174;2023-07-20T01:45:23;35.00;77.60
16305;DHT22;8261;47.678;-122.174;2023-07-20T01:47:56;34.90;77.60
16305;DHT22;8261;47.678;-122.174;2023-07-20T01:50:27;35.10;77.90
16305;DHT22;8261;47.678;-122.174;2023-07-20T01:52:58;34.80;79.60
16305;DHT22;8261;47.678;-122.174;2023-07-20T01:55:29;33.90;78.30
16305;DHT22;8261;47.678;-122.174;2023-07-20T01:57:59;33.00;81.70
16305;DHT22;8261;47.678;-122.174;2023-07-20T02:00:30;32.20;83.70
16305;DHT22;8261;47.678;-122.174;2023-07-20T02:03:03;31.80;83.80
16305;DHT22;8261;47.678;-122.174;2023-07-20T02:05:34;31.80;84.10
16305;DHT22;8261;47.678;-122.174;2023-07-20T02:08:05;31.80;84.40
16305;DHT22;8261;47.678;-122.174;2023-07-20T02:10:36;32.00;85.00
16305;DHT22;8261;47.678;-122.174;2023-07-20T02:13:07;31.70;85.40
16305;DHT22;8261;47.678;-122.174;2023-07-20T02:15:38;31.30;88.00
16305;DHT22;8261;47.678;-122.174;2023-07-20T02:18:10;30.90;88.60
16305;DHT22;8261;47.678;-122.174;2023-07-20T02:20:42;30.50;89.20
16305;DHT22;8261;47.678;-122.174;2023-07-20T02:23:13;30.30;90.10
16305;DHT22;8261;47.678;-122.174;2023-07-20T02:25:44;30.00;91.20
16305;DHT22;8261;47.678;-122.174;2023-07-20T02:28:16;29.70;91.60
16305;DHT22;8261;47.678;-122.174;2023-07-20T02:30:47;29.70;92.00
16305;DHT22;8261;47.678;-122.174;2023-07-20T02:33:19;29.50;92.20
16305;DHT22;8261;47.678;-122.174;2023-07-20T02:35:50;29.40;92.10
16305;DHT22;8261;47.678;-122.174;2023-07-20T02:38:21;29.30;92.70
16305;DHT22;8261;47.678;-122.174;2023-07-20T02:40:52;29.30;93.10
16305;DHT22;8261;47.678;-122.174;2023-07-20T02:43:23;29.10;92.70
16305;DHT22;8261;47.678;-122.174;2023-07-20T02:45:54;29.00;93.80
16305;DHT22;8261;47.678;-122.174;2023-07-20T02:48:27;28.90;93.70
16305;DHT22;8261;47.678;-122.174;2023-07-20T02:50:57;28.90;93.90
16305;DHT22;8261;47.678;-122.174;2023-07-20T02:53:28;28.80;93.10
16305;DHT22;8261;47.678;-122.174;2023-07-20T02:55:59;28.70;93.60
16305;DHT22;8261;47.678;-122.174;2023-07-20T02:58:30;28.60;94.30
16305;DHT22;8261;47.678;-122.174;2023-07-20T03:01:00;28.60;94.60
16305;DHT22;8261;47.678;-122.174;2023-07-20T03:03:33;28.50;94.60
16305;DHT22;8261;47.678;-122.174;2023-07-20T03:06:07;28.40;95.70
16305;DHT22;8261;47.678;-122.174;2023-07-20T03:08:39;28.20;95.80
16305;DHT22;8261;47.678;-122.174;2023-07-20T03:11:10;28.20;95.40
16305;DHT22;8261;47.678;-122.174;2023-07-20T03:13:40;28.10;95.40
16305;DHT22;8261;47.678;-122.174;2023-07-20T03:16:12;28.00;96.90
16305;DHT22;8261;47.678;-122.174;2023-07-20T03:18:46;28.00;96.50
16305;DHT22;8261;47.678;-122.174;2023-07-20T03:21:17;27.90;96.00
16305;DHT22;8261;47.678;-122.174;2023-07-20T03:23:48;27.80;96.10
16305;DHT22;8261;47.678;-122.174;2023-07-20T03:26:19;27.80;96.50
16305;DHT22;8261;47.678;-122.174;2023-07-20T03:28:51;27.80;96.50
16305;DHT22;8261;47.678;-122.174;2023-07-20T03:31:22;27.70;97.40
16305;DHT22;8261;47.678;-122.174;2023-07-20T03:33:55;27.60;96.30
16305;DHT22;8261;47.678;-122.174;2023-07-20T03:36:25;27.50;98.00
16305;DHT22;8261;47.678;-122.174;2023-07-20T03:38:56;27.40;96.80
16305;DHT22;8261;47.678;-122.174;2023-07-20T03:41:27;27.40;98.90
16305;DHT22;8261;47.678;-122.174;2023-07-20T03:43:58;27.10;99.90
16305;DHT22;8261;47.678;-122.174;2023-07-20T03:46:29;27.00;99.90
16305;DHT22;8261;47.678;-122.174;2023-07-20T03:49:01;26.80;99.10
16305;DHT22;8261;47.678;-122.174;2023-07-20T03:51:32;26.70;99.30
16305;DHT22;8261;47.678;-122.174;2023-07-20T03:54:03;26.60;99.70
16305;DHT22;8261;47.678;-122.174;2023-07-20T03:56:34;26.50;98.80
16305;DHT22;8261;47.678;-122.174;2023-07-20T03:59:05;26.40;99.20
16305;DHT22;8261;47.678;-122.174;2023-07-20T04:01:36;26.30;98.70
16305;DHT22;8261;47.678;-122.174;2023-07-20T04:04:10;26.20;99.80
16305;DHT22;8261;47.678;-122.174;2023-07-20T04:06:41;26.10;99.90
16305;DHT22;8261;47.678;-122.174;2023-07-20T04:09:13;26.00;99.50
16305;DHT22;8261;47.678;-122.174;2023-07-20T04:11:43;25.90;99.90
16305;DHT22;8261;47.678;-122.174;2023-07-20T04:14:14;25.80;99.90
16305;DHT22;8261;47.678;-122.174;2023-07-20T04:16:47;25.70;99.60
16305;DHT22;8261;47.678;-122.174;2023-07-20T04:19:19;25.60;99.90
16305;DHT22;8261;47.678;-122.174;2023-07-20T04:21:50;25.50;99.90
16305;DHT22;8261;47.678;-122.174;2023-07-20T04:24:21;25.50;99.90
16305;DHT22;8261;47.678;-122.174;2023-07-20T04:26:52;25.30;99.90
16305;DHT22;8261;47.678;-122.174;2023-07-20T04:29:22;25.20;99.90
16305;DHT22;8261;47.678;-122.174;2023-07-20T04:31:53;25.10;99.90
16305;DHT22;8261;47.678;-122.174;2023-07-20T04:34:26;24.90;99.90
16305;DHT22;8261;47.678;-122.174;2023-07-20T04:36:59;24.80;99.90
16305;DHT22;8261;47.678;-122.174;2023-07-20T04:39:31;24.70;99.90
16305;DHT22;8261;47.678;-122.174;2023-07-20T04:42:02;24.60;99.90
16305;DHT22;8261;47.678;-122.174;2023-07-20T04:44:33;24.60;99.90
16305;DHT22;8261;47.678;-122.174;2023-07-20T04:47:06;24.50;99.90
16305;DHT22;8261;47.678;-122.174;2023-07-20T04:49:38;24.50;99.90
16305;DHT22;8261;47.678;-122.174;2023-07-20T04:52:10;24.40;99.90
16305;DHT22;8261;47.678;-122.174;2023-07-20T04:54:41;24.30;99.90
16305;DHT22;8261;47.678;-122.174;2023-07-20T04:57:12;24.20;99.90
16305;DHT22;8261;47.678;-122.174;2023-07-20T04:59:43;24.20;99.90
16305;DHT22;8261;47.678;-122.174;2023-07-20T05:02:14;24.10;99.90
16305;DHT22;8261;47.678;-122.174;2023-07-20T05:04:47;24.00;99.90
16305;DHT22;8261;47.678;-122.174;2023-07-20T05:07:17;24.00;99.90
16305;DHT22;8261;47.678;-122.174;2023-07-20T05:09:48;23.80;99.90
16305;DHT22;8261;47.678;-122.174;2023-07-20T05:12:25;23.70;99.90
16305;DHT22;8261;47.678;-122.174;2023-07-20T05:14:56;23.60;99.90
16305;DHT22;8261;47.678;-122.174;2023-07-20T05:17:27;23.60;99.90
16305;DHT22;8261;47.678;-122.174;2023-07-20T05:19:59;23.50;99.90
16305;DHT22;8261;47.678;-122.174;2023-07-20T05:22:33;23.40;99.90
16305;DHT22;8261;47.678;-122.174;2023-07-20T05:25:05;23.30;99.90
16305;DHT22;8261;47.678;-122.174;2023-07-20T05:27:37;23.10;99.90
16305;DHT22;8261;47.678;-122.174;2023-07-20T05:30:08;23.10;99.90
16305;DHT22;8261;47.678;-122.174;2023-07-20T05:32:39;23.00;99.90
16305;DHT22;8261;47.678;-122.174;2023-07-20T05:35:12;22.90;99.90
16305;DHT22;8261;47.678;-122.174;2023-07-20T05:37:43;22.80;99.90
16305;DHT22;8261;47.678;-122.174;2023-07-20T05:40:15;22.80;99.90
16305;DHT22;8261;47.678;-122.174;2023-07-20T05:42:47;22.70;99.90
16305;DHT22;8261;47.678;-122.174;2023-07-20T05:45:20;22.60;99.90
16305;DHT22;8261;47.678;-122.174;2023-07-20T05:47:51;22.50;99.90
16305;DHT22;8261;47.678;-122.174;2023-07-20T05:50:23;22.50;99.90
16305;DHT22;8261;47.678;-122.174;2023-07-20T05:52:54;22.40;99.90
16305;DHT22;8261;47.678;-122.174;2023-07-20T05:55:25;22.30;99.90
16305;DHT22;8261;47.678;-122.174;2023-07-20T05:57:56;22.30;99.90
16305;DHT22;8261;47.678;-122.174;2023-07-20T06:00:27;22.20;99.90
16305;DHT22;8261;47.678;-122.174;2023-07-20T06:02:58;22.10;99.90
16305;DHT22;8261;47.678;-122.174;2023-07-20T06:05:30;22.10;99.90
16305;DHT22;8261;47.678;-122.174;2023-07-20T06:08:01;22.00;99.90
16305;DHT22;8261;47.678;-122.174;2023-07-20T06:10:32;21.90;99.90
16305;DHT22;8261;47.678;-122.174;2023-07-20T06:13:03;21.90;99.90
16305;DHT22;8261;47.678;-122.174;2023-07-20T06:15:34;21.80;99.90
16305;DHT22;8261;47.678;-122.174;2023-07-20T06:18:05;21.80;99.90
16305;DHT22;8261;47.678;-122.174;2023-07-20T06:20:37;21.70;99.90
16305;DHT22;8261;47.678;-122.174;2023-07-20T06:23:08;21.60;99.90
16305;DHT22;8261;47.678;-122.174;2023-07-20T06:25:39;21.60;99.90
16305;DHT22;8261;47.678;-122.174;2023-07-20T06:28:10;21.60;99.90
16305;DHT22;8261;47.678;-122.174;2023-07-20T06:30:41;21.50;99.90
16305;DHT22;8261;47.678;-122.174;2023-07-20T06:33:12;21.40;99.90
16305;DHT22;8261;47.678;-122.174;2023-07-20T06:35:44;21.40;99.90
16305;DHT22;8261;47.678;-122.174;2023-07-20T06:38:15;21.30;99.90
16305;DHT22;8261;47.678;-122.174;2023-07-20T06:40:49;21.20;99.90
16305;DHT22;8261;47.678;-122.174;2023-07-20T06:43:19;21.20;99.90
16305;DHT22;8261;47.678;-122.174;2023-07-20T06:45:53;21.10;99.90
16305;DHT22;8261;47.678;-122.174;2023-07-20T06:48:24;21.00;99.90
16305;DHT22;8261;47.678;-122.174;2023-07-20T06:50:57;21.00;99.90
16305;DHT22;8261;47.678;-122.174;2023-07-20T06:53:28;21.00;99.90
16305;DHT22;8261;47.678;-122.174;2023-07-20T06:55:58;21.00;99.90
16305;DHT22;8261;47.678;-122.174;2023-07-20T06:58:29;21.00;99.90
16305;DHT22;8261;47.678;-122.174;2023-07-20T07:01:03;20.90;99.90
16305;DHT22;8261;47.678;-122.174;2023-07-20T07:03:35;20.90;99.90
16305;DHT22;8261;47.678;-122.174;2023-07-20T07:06:07;20.90;99.90
16305;DHT22;8261;47.678;-122.174;2023-07-20T07:08:38;20.80;99.90
16305;DHT22;8261;47.678;-122.174;2023-07-20T07:11:09;20.70;99.90
16305;DHT22;8261;47.678;-122.174;2023-07-20T07:13:40;20.70;99.90
16305;DHT22;8261;47.678;-122.174;2023-07-20T07:16:10;20.70;99.90
16305;DHT22;8261;47.678;-122.174;2023-07-20T07:18:47;20.60;99.90
16305;DHT22;8261;47.678;-122.174;2023-07-20T07:21:20;20.50;99.90
16305;DHT22;8261;47.678;-122.174;2023-07-20T07:23:50;20.50;99.90
16305;DHT22;8261;47.678;-122.174;2023-07-20T07:26:22;20.40;99.90
16305;DHT22;8261;47.678;-122.174;2023-07-20T07:28:52;20.30;99.90
16305;DHT22;8261;47.678;-122.174;2023-07-20T07:31:24;20.30;99.90
16305;DHT22;8261;47.678;-122.174;2023-07-20T07:33:55;20.20;99.90
16305;DHT22;8261;47.678;-122.174;2023-07-20T07:36:27;20.20;99.90
16305;DHT22;8261;47.678;-122.174;2023-07-20T07:38:58;20.20;99.90
16305;DHT22;8261;47.678;-122.174;2023-07-20T07:41:49;20.10;99.90
16305;DHT22;8261;47.678;-122.174;2023-07-20T07:44:20;20.00;99.90
16305;DHT22;8261;47.678;-122.174;2023-07-20T07:46:51;19.90;99.90
16305;DHT22;8261;47.678;-122.174;2023-07-20T07:49:22;19.90;99.90
16305;DHT22;8261;47.678;-122.174;2023-07-20T07:51:54;19.80;99.90
16305;DHT22;8261;47.678;-122.174;2023-07-20T07:54:25;19.70;99.90
16305;DHT22;8261;47.678;-122.174;2023-07-20T07:56:56;19.70;99.90
16305;DHT22;8261;47.678;-122.174;2023-07-20T07:59:27;19.70;99.90
16305;DHT22;8261;47.678;-122.174;2023-07-20T08:01:59;19.70;99.90
16305;DHT22;8261;47.678;-122.174;2023-07-20T08:04:31;19.70;99.90
16305;DHT22;8261;47.678;-122.174;2023-07-20T08:07:04;19.70;99.90
16305;DHT22;8261;47.678;-122.174;2023-07-20T08:09:35;19.60;99.90
16305;DHT22;8261;47.678;-122.174;2023-07-20T08:12:07;19.50;99.90
16305;DHT22;8261;47.678;-122.174;2023-07-20T08:14:38;19.50;99.90
16305;DHT22;8261;47.678;-122.174;2023-07-20T08:17:10;19.40;99.90
16305;DHT22;8261;47.678;-122.174;2023-07-20T08:19:41;19.40;99.90
16305;DHT22;8261;47.678;-122.174;2023-07-20T08:22:13;19.30;99.90
16305;DHT22;8261;47.678;-122.174;2023-07-20T08:24:44;19.30;99.90
16305;DHT22;8261;47.678;-122.174;2023-07-20T08:27:15;19.30;99.90
16305;DHT22;8261;47.678;-122.174;2023-07-20T08:29:46;19.20;99.90
16305;DHT22;8261;47.678;-122.174;2023-07-20T08:32:16;19.20;99.90
16305;DHT22;8261;47.678;-122.174;2023-07-20T08:34:48;19.20;99.90
16305;DHT22;8261;47.678;-122.174;2023-07-20T08:37:20;19.20;99.90
16305;DHT22;8261;47.678;-122.174;2023-07-20T08:39:51;19.10;99.90
16305;DHT22;8261;47.678;-122.174;2023-07-20T08:42:23;19.10;99.90
16305;DHT22;8261;47.678;-122.174;2023-07-20T08:44:55;19.00;99.90
16305;DHT22;8261;47.678;-122.174;2023-07-20T08:47:26;19.00;99.90
16305;DHT22;8261;47.678;-122.174;2023-07-20T08:49:57;19.00;99.90
16305;DHT22;8261;47.678;-122.174;2023-07-20T08:52:33;18.90;99.90
16305;DHT22;8261;47.678;-122.174;2023-07-20T08:55:05;18.90;99.90
16305;DHT22;8261;47.678;-122.174;2023-07-20T08:57:37;19.00;99.90
16305;DHT22;8261;47.678;-122.174;2023-07-20T09:00:11;18.90;99.90
16305;DHT22;8261;47.678;-122.174;2023-07-20T09:02:46;18.90;99.90
16305;DHT22;8261;47.678;-122.174;2023-07-20T09:05:18;18.90;99.90
16305;DHT22;8261;47.678;-122.174;2023-07-20T09:07:51;18.90;99.90
16305;DHT22;8261;47.678;-122.174;2023-07-20T09:10:23;18.80;99.90
16305;DHT22;8261;47.678;-122.174;2023-07-20T09:12:54;18.80;99.90
16305;DHT22;8261;47.678;-122.174;2023-07-20T09:15:26;18.80;99.90
16305;DHT22;8261;47.678;-122.174;2023-07-20T09:17:58;18.70;99.90
16305;DHT22;8261;47.678;-122.174;2023-07-20T09:20:32;18.80;99.90
16305;DHT22;8261;47.678;-122.174;2023-07-20T09:23:07;18.80;99.90
16305;DHT22;8261;47.678;-122.174;2023-07-20T09:25:37;18.70;99.90
16305;DHT22;8261;47.678;-122.174;2023-07-20T09:28:08;18.70;99.90
16305;DHT22;8261;47.678;-122.174;2023-07-20T09:30:39;18.60;99.90
16305;DHT22;8261;47.678;-122.174;2023-07-20T09:33:18;18.60;99.90
16305;DHT22;8261;47.678;-122.174;2023-07-20T09:35:52;18.60;99.90
16305;DHT22;8261;47.678;-122.174;2023-07-20T09:38:30;18.60;99.90
16305;DHT22;8261;47.678;-122.174;2023-07-20T09:41:22;18.60;99.90
16305;DHT22;8261;47.678;-122.174;2023-07-20T09:43:55;18.50;99.90
16305;DHT22;8261;47.678;-122.174;2023-07-20T09:46:41;18.50;99.90
16305;DHT22;8261;47.678;-122.174;2023-07-20T09:49:15;18.40;99.90
16305;DHT22;8261;47.678;-122.174;2023-07-20T09:51:50;18.40;99.90
16305;DHT22;8261;47.678;-122.174;2023-07-20T09:54:25;18.40;99.90
16305;DHT22;8261;47.678;-122.174;2023-07-20T09:56:57;18.40;99.90
16305;DHT22;8261;47.678;-122.174;2023-07-20T09:59:28;18.40;99.90
16305;DHT22;8261;47.678;-122.174;2023-07-20T10:02:02;18.30;99.90
16305;DHT22;8261;47.678;-122.174;2023-07-20T10:04:37;18.30;99.90
16305;DHT22;8261;47.678;-122.174;2023-07-20T10:07:10;18.40;99.90
16305;DHT22;8261;47.678;-122.174;2023-07-20T10:09:45;18.30;99.90
16305;DHT22;8261;47.678;-122.174;2023-07-20T10:12:16;18.20;99.90
16305;DHT22;8261;47.678;-122.174;2023-07-20T10:14:52;18.20;99.90
16305;DHT22;8261;47.678;-122.174;2023-07-20T10:17:29;18.10;99.90
16305;DHT22;8261;47.678;-122.174;2023-07-20T10:20:01;18.20;99.90
16305;DHT22;8261;47.678;-122.174;2023-07-20T10:22:36;18.20;99.90
16305;DHT22;8261;47.678;-122.174;2023-07-20T10:25:11;18.20;99.90
16305;DHT22;8261;47.678;-122.174;2023-07-20T10:27:42;18.10;99.90
16305;DHT22;8261;47.678;-122.174;2023-07-20T10:30:13;18.10;99.90
16305;DHT22;8261;47.678;-122.174;2023-07-20T10:32:45;18.00;99.90
16305;DHT22;8261;47.678;-122.174;2023-07-20T10:35:17;18.00;99.90
16305;DHT22;8261;47.678;-122.174;2023-07-20T10:37:53;18.00;99.90
16305;DHT22;8261;47.678;-122.174;2023-07-20T10:40:30;18.00;99.90
16305;DHT22;8261;47.678;-122.174;2023-07-20T10:43:03;18.00;99.90
16305;DHT22;8261;47.678;-122.174;2023-07-20T10:45:41;18.00;99.90
16305;DHT22;8261;47.678;-122.174;2023-07-20T10:48:16;17.90;99.90
16305;DHT22;8261;47.678;-122.174;2023-07-20T10:51:09;17.90;99.90
16305;DHT22;8261;47.678;-122.174;2023-07-20T10:53:40;17.90;99.90
16305;DHT22;8261;47.678;-122.174;2023-07-20T10:56:14;17.80;99.90
16305;DHT22;8261;47.678;-122.174;2023-07-20T10:58:46;17.80;99.90
16305;DHT22;8261;47.678;-122.174;2023-07-20T11:01:17;17.70;99.90
16305;DHT22;8261;47.678;-122.174;2023-07-20T11:03:50;17.70;99.90
16305;DHT22;8261;47.678;-122.174;2023-07-20T11:06:31;17.70;99.90
16305;DHT22;8261;47.678;-122.174;2023-07-20T11:09:09;17.60;99.90
16305;DHT22;8261;47.678;-122.174;2023-07-20T11:11:46;17.60;99.90
16305;DHT22;8261;47.678;-122.174;2023-07-20T11:14:24;17.60;99.90
16305;DHT22;8261;47.678;-122.174;2023-07-20T11:16:55;17.50;99.90
16305;DHT22;8261;47.678;-122.174;2023-07-20T11:19:26;17.50;99.90
16305;DHT22;8261;47.678;-122.174;2023-07-20T11:22:00;17.40;99.90
16305;DHT22;8261;47.678;-122.174;2023-07-20T11:24:39;17.30;99.90
16305;DHT22;8261;47.678;-122.174;2023-07-20T11:27:12;17.30;99.90
16305;DHT22;8261;47.678;-122.174;2023-07-20T11:29:46;17.30;99.90
16305;DHT22;8261;47.678;-122.174;2023-07-20T11:32:21;17.30;99.90
16305;DHT22;8261;47.678;-122.174;2023-07-20T11:34:52;17.20;99.90
16305;DHT22;8261;47.678;-122.174;2023-07-20T11:37:23;17.20;99.90
16305;DHT22;8261;47.678;-122.174;2023-07-20T11:39:56;17.10;99.90
16305;DHT22;8261;47.678;-122.174;2023-07-20T11:42:29;17.10;99.90
16305;DHT22;8261;47.678;-122.174;2023-07-20T11:45:03;17.10;99.90
16305;DHT22;8261;47.678;-122.174;2023-07-20T11:47:35;17.10;99.90
16305;DHT22;8261;47.678;-122.174;2023-07-20T11:50:11;17.00;99.90
16305;DHT22;8261;47.678;-122.174;2023-07-20T11:52:43;17.00;99.90
16305;DHT22;8261;47.678;-122.174;2023-07-20T11:55:13;17.00;99.90
16305;DHT22;8261;47.678;-122.174;2023-07-20T12:00:44;16.90;99.90
16305;DHT22;8261;47.678;-122.174;2023-07-20T12:03:15;16.90;99.90
16305;DHT22;8261;47.678;-122.174;2023-07-20T12:05:46;16.80;99.90
16305;DHT22;8261;47.678;-122.174;2023-07-20T12:08:28;16.80;99.90
16305;DHT22;8261;47.678;-122.174;2023-07-20T12:11:00;16.70;99.90
16305;DHT22;8261;47.678;-122.174;2023-07-20T12:13:37;16.70;99.90
16305;DHT22;8261;47.678;-122.174;2023-07-20T12:16:14;16.70;99.90
16305;DHT22;8261;47.678;-122.174;2023-07-20T12:18:46;16.60;99.90
16305;DHT22;8261;47.678;-122.174;2023-07-20T12:21:16;16.70;99.90
16305;DHT22;8261;47.678;-122.174;2023-07-20T12:23:49;16.70;99.90
16305;DHT22;8261;47.678;-122.174;2023-07-20T12:26:20;16.70;99.90
16305;DHT22;8261;47.678;-122.174;2023-07-20T12:28:53;16.70;99.90
16305;DHT22;8261;47.678;-122.174;2023-07-20T12:31:26;16.70;99.90
16305;DHT22;8261;47.678;-122.174;2023-07-20T12:34:00;16.60;99.90
16305;DHT22;8261;47.678;-122.174;2023-07-20T12:36:31;16.60;99.90
16305;DHT22;8261;47.678;-122.174;2023-07-20T12:39:02;16.60;99.90
16305;DHT22;8261;47.678;-122.174;2023-07-20T12:41:33;16.50;99.90
16305;DHT22;8261;47.678;-122.174;2023-07-20T12:44:04;16.50;99.90
16305;DHT22;8261;47.678;-122.174;2023-07-20T12:46:37;16.50;99.90
16305;DHT22;8261;47.678;-122.174;2023-07-20T12:49:08;16.50;99.90
16305;DHT22;8261;47.678;-122.174;2023-07-20T12:51:38;16.50;99.90
16305;DHT22;8261;47.678;-122.174;2023-07-20T12:54:10;16.50;99.90
16305;DHT22;8261;47.678;-122.174;2023-07-20T12:56:40;16.60;99.90
16305;DHT22;8261;47.678;-122.174;2023-07-20T12:59:14;16.60;99.90
16305;DHT22;8261;47.678;-122.174;2023-07-20T13:01:47;16.60;99.90
16305;DHT22;8261;47.678;-122.174;2023-07-20T13:04:18;16.70;99.90
16305;DHT22;8261;47.678;-122.174;2023-07-20T13:06:49;16.70;99.90
16305;DHT22;8261;47.678;-122.174;2023-07-20T13:09:19;16.80;99.90
16305;DHT22;8261;47.678;-122.174;2023-07-20T13:11:51;16.80;99.90
16305;DHT22;8261;47.678;-122.174;2023-07-20T13:14:21;16.90;99.90
16305;DHT22;8261;47.678;-122.174;2023-07-20T13:16:54;16.90;99.90
16305;DHT22;8261;47.678;-122.174;2023-07-20T13:19:25;17.00;99.90
16305;DHT22;8261;47.678;-122.174;2023-07-20T13:21:57;17.00;99.90
16305;DHT22;8261;47.678;-122.174;2023-07-20T13:24:28;17.10;99.90
16305;DHT22;8261;47.678;-122.174;2023-07-20T13:26:59;17.10;99.90
16305;DHT22;8261;47.678;-122.174;2023-07-20T13:29:30;17.20;99.90
16305;DHT22;8261;47.678;-122.174;2023-07-20T13:32:03;17.20;99.90
16305;DHT22;8261;47.678;-122.174;2023-07-20T13:34:35;17.30;99.90
16305;DHT22;8261;47.678;-122.174;2023-07-20T13:37:07;17.30;99.90
16305;DHT22;8261;47.678;-122.174;2023-07-20T13:39:40;17.40;99.90
16305;DHT22;8261;47.678;-122.174;2023-07-20T13:42:12;17.40;99.90
16305;DHT22;8261;47.678;-122.174;2023-07-20T13:44:45;17.40;99.90
16305;DHT22;8261;47.678;-122.174;2023-07-20T13:47:18;17.50;99.90
16305;DHT22;8261;47.678;-122.174;2023-07-20T13:49:49;17.50;99.90
16305;DHT22;8261;47.678;-122.174;2023-07-20T13:52:31;17.60;99.90
16305;DHT22;8261;47.678;-122.174;2023-07-20T13:55:06;17.60;99.90
16305;DHT22;8261;47.678;-122.174;2023-07-20T13:57:37;17.60;99.90
16305;DHT22;8261;47.678;-122.174;2023-07-20T14:00:11;17.70;99.90
16305;DHT22;8261;47.678;-122.174;2023-07-20T14:02:49;17.70;99.90
16305;DHT22;8261;47.678;-122.174;2023-07-20T14:05:23;17.70;99.90
16305;DHT22;8261;47.678;-122.174;2023-07-20T14:07:57;17.80;99.90
16305;DHT22;8261;47.678;-122.174;2023-07-20T14:10:28;17.80;99.90
16305;DHT22;8261;47.678;-122.174;2023-07-20T14:12:58;17.90;99.90
16305;DHT22;8261;47.678;-122.174;2023-07-20T14:15:29;17.90;99.90
16305;DHT22;8261;47.678;-122.174;2023-07-20T14:18:02;18.00;99.90
16305;DHT22;8261;47.678;-122.174;2023-07-20T14:20:33;18.10;99.90
16305;DHT22;8261;47.678;-122.174;2023-07-20T14:23:06;18.10;99.90
16305;DHT22;8261;47.678;-122.174;2023-07-20T14:25:37;18.20;99.90
16305;DHT22;8261;47.678;-122.174;2023-07-20T14:28:08;18.20;99.90
16305;DHT22;8261;47.678;-122.174;2023-07-20T14:30:39;18.20;99.90
16305;DHT22;8261;47.678;-122.174;2023-07-20T14:33:12;18.20;99.90
16305;DHT22;8261;47.678;-122.174;2023-07-20T14:35:43;18.30;99.90
16305;DHT22;8261;47.678;-122.174;2023-07-20T14:38:13;18.30;99.90
16305;DHT22;8261;47.678;-122.174;2023-07-20T14:40:44;18.40;99.90
16305;DHT22;8261;47.678;-122.174;2023-07-20T14:43:19;18.40;99.90
16305;DHT22;8261;47.678;-122.174;2023-07-20T14:45:50;18.40;99.90
16305;DHT22;8261;47.678;-122.174;2023-07-20T14:48:24;18.50;99.90
16305;DHT22;8261;47.678;-122.174;2023-07-20T14:50:55;18.60;99.90
16305;DHT22;8261;47.678;-122.174;2023-07-20T14:53:29;18.80;99.90
16305;DHT22;8261;47.678;-122.174;2023-07-20T14:56:04;19.00;99.90
16305;DHT22;8261;47.678;-122.174;2023-07-20T14:58:37;19.40;99.90
16305;DHT22;8261;47.678;-122.174;2023-07-20T15:01:08;19.80;99.90
16305;DHT22;8261;47.678;-122.174;2023-07-20T15:03:40;20.10;99.90
16305;DHT22;8261;47.678;-122.174;2023-07-20T15:06:11;20.00;99.90
16305;DHT22;8261;47.678;-122.174;2023-07-20T15:08:42;20.60;99.90
16305;DHT22;8261;47.678;-122.174;2023-07-20T15:11:13;21.10;99.90
16305;DHT22;8261;47.678;-122.174;2023-07-20T15:13:44;21.50;99.90
16305;DHT22;8261;47.678;-122.174;2023-07-20T15:16:15;22.00;99.90
16305;DHT22;8261;47.678;-122.174;2023-07-20T15:18:48;22.30;99.90
16305;DHT22;8261;47.678;-122.174;2023-07-20T15:21:19;22.60;99.90
16305;DHT22;8261;47.678;-122.174;2023-07-20T15:23:51;22.70;99.90
16305;DHT22;8261;47.678;-122.174;2023-07-20T15:26:22;22.80;99.90
16305;DHT22;8261;47.678;-122.174;2023-07-20T15:28:53;22.90;99.90
16305;DHT22;8261;47.678;-122.174;2023-07-20T15:31:24;22.80;99.90
16305;DHT22;8261;47.678;-122.174;2023-07-20T15:34:00;22.40;99.90
16305;DHT22;8261;47.678;-122.174;2023-07-20T15:36:31;22.00;99.90
16305;DHT22;8261;47.678;-122.174;2023-07-20T15:39:02;21.00;99.90
16305;DHT22;8261;47.678;-122.174;2023-07-20T15:41:34;20.90;99.90